createdAt,value
2018-11-02T00:02:57.790Z,87.40
2018-11-02T00:06:01.718Z,88.00
2018-11-02T00:09:07.316Z,88.30
2018-11-02T00:12:11.758Z,88.10
2018-11-02T00:15:15.645Z,87.40
2018-11-02T00:18:20.017Z,87.20
2018-11-02T00:21:23.930Z,86.80
2018-11-02T00:24:28.783Z,86.70
2018-11-02T00:27:32.646Z,86.60
2018-11-02T00:30:36.585Z,86.60
2018-11-02T00:33:41.064Z,86.60
2018-11-02T00:36:45.020Z,86.50
2018-11-02T00:39:48.975Z,86.30
2018-11-02T00:42:52.955Z,86.60
2018-11-02T00:45:56.872Z,85.90
2018-11-02T00:49:01.485Z,85.80
2018-11-02T00:52:05.866Z,85.90
2018-11-02T00:55:10.237Z,85.60
2018-11-02T00:58:14.610Z,85.60
2018-11-02T01:01:18.514Z,85.40
2018-11-02T01:04:23.059Z,85.20
2018-11-02T01:07:27.471Z,85.20
2018-11-02T01:10:31.798Z,85.80
2018-11-02T01:13:35.917Z,86.30
2018-11-02T01:16:39.941Z,86.20
2018-11-02T01:19:44.427Z,86.20
2018-11-02T01:22:48.448Z,86.60
2018-11-02T01:25:52.793Z,86.70
2018-11-02T01:28:57.891Z,87.40
2018-11-02T01:32:02.228Z,86.20
2018-11-02T01:35:07.527Z,86.40
2018-11-02T01:38:11.865Z,85.80
2018-11-02T01:41:16.175Z,85.80
2018-11-02T01:44:21.285Z,85.30
2018-11-02T01:47:25.399Z,85.00
2018-11-02T01:50:29.278Z,85.00
2018-11-02T01:53:33.214Z,85.00
2018-11-02T01:56:37.119Z,85.00
2018-11-02T01:59:41.065Z,85.50
2018-11-02T02:02:45.035Z,85.90
2018-11-02T02:05:49.016Z,87.00
2018-11-02T02:08:53.000Z,87.30
2018-11-02T02:11:56.944Z,87.90
2018-11-02T02:15:00.858Z,87.90
2018-11-02T02:18:04.784Z,88.10
2018-11-02T02:21:08.769Z,87.80
2018-11-02T02:24:12.677Z,87.40
2018-11-02T02:27:16.556Z,87.10
2018-11-02T02:30:21.288Z,86.50
2018-11-02T02:33:25.212Z,86.40
2018-11-02T02:36:29.186Z,86.20
2018-11-02T02:39:33.152Z,85.70
2018-11-02T02:42:37.243Z,86.00
2018-11-02T02:45:41.114Z,85.90
2018-11-02T02:48:45.135Z,86.10
2018-11-02T02:51:49.030Z,86.00
2018-11-02T02:54:53.809Z,86.40
2018-11-02T02:57:57.711Z,86.70
2018-11-02T03:01:01.591Z,86.40
2018-11-02T03:04:05.777Z,86.20
2018-11-02T03:07:09.644Z,86.10
2018-11-02T03:10:13.609Z,85.80
2018-11-02T03:13:17.512Z,85.60
2018-11-02T03:16:21.489Z,85.90
2018-11-02T03:19:25.420Z,86.10
2018-11-02T03:22:29.479Z,86.20
2018-11-02T03:25:33.391Z,85.90
2018-11-02T03:28:37.354Z,86.10
2018-11-02T03:31:41.275Z,86.40
2018-11-02T03:34:45.179Z,86.30
2018-11-02T03:37:49.090Z,86.10
2018-11-02T03:40:53.227Z,85.70
2018-11-02T03:43:57.117Z,85.70
2018-11-02T03:47:01.017Z,85.70
2018-11-02T03:50:05.652Z,85.40
2018-11-02T03:53:09.564Z,85.60
2018-11-02T03:56:13.487Z,85.90
2018-11-02T03:59:17.398Z,85.50
2018-11-02T04:02:21.268Z,85.50
2018-11-02T04:05:25.220Z,86.10
2018-11-02T04:08:29.133Z,86.50
2018-11-02T04:11:33.026Z,86.50
2018-11-02T04:14:36.939Z,86.90
2018-11-02T04:17:41.307Z,87.00
2018-11-02T04:20:45.247Z,87.30
2018-11-02T04:23:49.133Z,87.20
2018-11-02T04:26:53.162Z,87.20
2018-11-02T04:29:57.090Z,87.20
2018-11-02T04:33:01.060Z,87.70
2018-11-02T04:36:04.991Z,88.20
2018-11-02T04:39:10.934Z,88.30
2018-11-02T04:42:14.802Z,88.70
2018-11-02T04:45:22.976Z,88.70
2018-11-02T04:48:26.861Z,89.50
2018-11-02T04:51:30.752Z,90.20
2018-11-02T04:54:34.763Z,90.40
2018-11-02T04:57:39.206Z,90.20
2018-11-02T05:00:43.130Z,89.50
2018-11-02T05:03:47.010Z,88.80
2018-11-02T05:06:50.898Z,88.50
2018-11-02T05:09:54.898Z,88.10
2018-11-02T05:12:58.937Z,87.50
2018-11-02T05:16:02.887Z,86.90
2018-11-02T05:19:06.844Z,86.80
2018-11-02T05:22:10.869Z,86.70
2018-11-02T05:25:14.793Z,86.50
2018-11-02T05:28:18.703Z,86.70
2018-11-02T05:31:22.609Z,87.00
2018-11-02T05:34:26.609Z,87.70
2018-11-02T05:37:30.492Z,86.90
2018-11-02T05:40:34.434Z,87.40
2018-11-02T05:43:38.342Z,87.10
2018-11-02T05:46:42.225Z,86.90
2018-11-02T05:49:46.233Z,86.50
2018-11-02T05:52:50.237Z,86.40
2018-11-02T05:55:54.164Z,86.20
2018-11-02T05:58:58.037Z,86.30
2018-11-02T06:02:02.020Z,86.20
2018-11-02T06:05:06.556Z,86.70
2018-11-02T06:08:10.447Z,86.80
2018-11-02T06:11:15.042Z,86.60
2018-11-02T06:14:19.745Z,86.20
2018-11-02T06:17:23.709Z,85.80
2018-11-02T06:20:27.640Z,85.50
2018-11-02T06:23:31.612Z,84.90
2018-11-02T06:26:35.729Z,84.20
2018-11-02T06:29:39.628Z,84.10
2018-11-02T06:32:43.556Z,84.20
2018-11-02T06:35:47.485Z,84.40
2018-11-02T06:38:51.478Z,84.30
2018-11-02T06:41:55.332Z,83.50
2018-11-02T06:44:59.370Z,83.20
2018-11-02T06:48:03.232Z,82.30
2018-11-02T06:51:07.202Z,81.10
2018-11-02T06:54:11.155Z,79.90
2018-11-02T06:57:15.018Z,79.10
2018-11-02T07:00:18.960Z,78.60
2018-11-02T07:03:22.909Z,77.90
2018-11-02T07:06:27.757Z,77.90
2018-11-02T07:09:31.573Z,77.00
2018-11-02T07:12:35.397Z,77.10
2018-11-02T07:15:39.348Z,76.90
2018-11-02T07:18:43.195Z,77.10
2018-11-02T07:21:47.043Z,78.00
2018-11-02T07:24:50.834Z,78.00
2018-11-02T07:27:54.682Z,78.10
2018-11-02T07:30:58.556Z,78.00
2018-11-02T07:34:02.626Z,77.20
2018-11-02T07:37:06.410Z,76.50
2018-11-02T07:40:11.526Z,75.90
2018-11-02T07:43:15.371Z,75.50
2018-11-02T07:46:19.179Z,75.20
2018-11-02T07:49:22.986Z,73.70
2018-11-02T07:52:26.850Z,72.90
2018-11-02T07:55:30.753Z,72.60
2018-11-02T07:58:34.633Z,71.60
2018-11-02T08:01:38.449Z,70.90
2018-11-02T08:04:42.247Z,70.90
2018-11-02T08:07:46.066Z,71.30
2018-11-02T08:10:49.877Z,72.80
2018-11-02T08:13:53.730Z,73.40
2018-11-02T08:16:57.532Z,73.90
2018-11-02T08:20:01.489Z,74.40
2018-11-02T08:23:05.356Z,74.50
2018-11-02T08:26:09.129Z,73.90
2018-11-02T08:29:12.911Z,73.20
2018-11-02T08:32:16.790Z,73.60
2018-11-02T08:35:20.559Z,73.70
2018-11-02T08:38:24.367Z,72.80
2018-11-02T08:41:28.269Z,70.60
2018-11-02T08:44:32.083Z,68.50
2018-11-02T08:47:35.905Z,66.90
2018-11-02T08:50:39.704Z,66.80
2018-11-02T08:53:43.565Z,66.80
2018-11-02T08:56:47.410Z,67.30
2018-11-02T08:59:52.097Z,68.00
2018-11-02T09:02:55.931Z,68.80
2018-11-02T09:05:59.817Z,70.80
2018-11-02T09:09:04.343Z,71.30
2018-11-02T09:12:08.402Z,71.40
2018-11-02T09:15:12.393Z,71.30
2018-11-02T09:18:16.320Z,70.70
2018-11-02T09:21:20.324Z,69.20
2018-11-02T09:24:24.602Z,68.40
2018-11-02T09:27:28.722Z,59.70
2018-11-02T09:30:32.598Z,48.60
2018-11-02T09:33:36.491Z,40.30
2018-11-02T09:36:40.423Z,33.90
2018-11-02T09:39:44.320Z,29.10
2018-11-02T09:42:48.263Z,26.80
2018-11-02T09:45:52.302Z,25.20
2018-11-02T09:48:56.411Z,24.30
2018-11-02T09:52:00.628Z,23.50
2018-11-02T09:55:04.938Z,22.20
2018-11-02T09:58:09.285Z,21.50
2018-11-02T10:01:13.489Z,21.90
2018-11-02T10:04:17.602Z,22.70
2018-11-02T10:07:21.965Z,22.00
2018-11-02T10:10:26.522Z,21.30
2018-11-02T10:13:30.870Z,20.70
2018-11-02T10:16:35.183Z,20.60
2018-11-02T10:19:39.471Z,20.70
2018-11-02T10:22:43.961Z,20.60
2018-11-02T10:25:48.290Z,20.10
2018-11-02T10:28:52.682Z,19.50
2018-11-02T10:31:57.075Z,18.70
2018-11-02T10:35:02.178Z,17.80
2018-11-02T10:38:06.464Z,17.10
2018-11-02T10:41:12.666Z,16.40
2018-11-02T10:44:18.228Z,16.70
2018-11-02T10:47:22.594Z,15.80
2018-11-02T10:50:26.532Z,15.60
2018-11-02T10:53:30.530Z,15.40
2018-11-02T10:56:34.455Z,15.30
2018-11-02T10:59:38.866Z,14.40
2018-11-02T11:02:42.802Z,14.70
2018-11-02T11:05:46.738Z,14.30
2018-11-02T11:08:51.089Z,13.90
2018-11-02T11:11:55.070Z,14.70
2018-11-02T11:14:59.074Z,17.10
2018-11-02T11:18:03.003Z,19.60
2018-11-02T11:21:07.079Z,21.50
2018-11-02T11:24:11.009Z,21.90
2018-11-02T11:27:14.918Z,22.80
2018-11-02T11:30:20.250Z,25.00
2018-11-02T11:33:24.234Z,27.60
2018-11-02T11:36:28.196Z,29.60
2018-11-02T11:39:32.119Z,30.30
2018-11-02T11:42:36.028Z,31.60
2018-11-02T11:45:40.200Z,33.30
2018-11-02T11:48:44.671Z,35.40
2018-11-02T11:51:48.583Z,38.00
2018-11-02T11:54:53.021Z,39.50
2018-11-02T11:57:57.296Z,40.00
2018-11-02T12:01:01.678Z,40.10
2018-11-02T12:04:06.423Z,38.70
2018-11-02T12:07:10.438Z,37.60
2018-11-02T12:10:16.724Z,38.40
2018-11-02T12:13:20.838Z,39.10
2018-11-02T12:16:25.069Z,39.70
2018-11-02T12:19:29.506Z,41.60
2018-11-02T12:22:34.750Z,43.40
2018-11-02T12:25:39.074Z,44.90
2018-11-02T12:28:43.725Z,46.30
2018-11-02T12:31:54.901Z,48.00
2018-11-02T12:35:04.558Z,49.40
2018-11-02T12:38:08.731Z,51.10
2018-11-02T12:41:12.872Z,52.20
2018-11-02T12:44:17.209Z,52.90
2018-11-02T12:47:21.539Z,53.90
2018-11-02T12:50:27.438Z,54.50
2018-11-02T12:53:31.785Z,54.90
2018-11-02T12:56:36.122Z,55.40
2018-11-02T12:59:40.586Z,56.00
2018-11-02T13:02:45.589Z,56.60
2018-11-02T13:05:50.120Z,57.10
2018-11-02T13:08:54.435Z,57.50
2018-11-02T13:11:58.880Z,57.70
2018-11-02T13:15:03.270Z,58.10
2018-11-02T13:18:07.615Z,58.70
2018-11-02T13:21:11.880Z,59.50
2018-11-02T13:24:16.222Z,59.70
2018-11-02T13:27:20.677Z,60.60
2018-11-02T13:30:24.694Z,60.70
2018-11-02T13:33:28.515Z,61.50
2018-11-02T13:36:32.667Z,62.10
2018-11-02T13:39:36.394Z,62.30
2018-11-02T13:42:40.899Z,62.60
2018-11-02T13:45:44.970Z,63.40
2018-11-02T13:48:48.876Z,63.70
2018-11-02T13:51:53.258Z,64.30
2018-11-02T13:54:57.220Z,65.00
2018-11-02T13:58:01.147Z,66.30
2018-11-02T14:01:05.187Z,67.40
2018-11-02T14:04:09.092Z,68.50
2018-11-02T14:07:13.336Z,69.20
2018-11-02T14:10:17.653Z,69.40
2018-11-02T14:13:22.028Z,69.50
2018-11-02T14:16:26.060Z,70.30
2018-11-02T14:19:30.103Z,71.50
2018-11-02T14:22:34.456Z,71.40
2018-11-02T14:25:38.764Z,72.10
2018-11-02T14:28:42.963Z,72.60
2018-11-02T14:31:47.296Z,73.60
2018-11-02T14:34:51.509Z,74.40
2018-11-02T14:37:55.720Z,75.00
2018-11-02T14:41:00.042Z,75.50
2018-11-02T14:44:04.409Z,76.20
2018-11-02T14:47:09.044Z,77.00
2018-11-02T14:50:13.563Z,78.00
2018-11-02T14:53:18.030Z,78.70
2018-11-02T14:56:22.286Z,79.90
2018-11-02T14:59:26.537Z,79.70
2018-11-02T15:02:30.490Z,80.60
2018-11-02T15:05:34.384Z,81.20
2018-11-02T15:08:38.893Z,81.30
2018-11-02T15:11:43.716Z,81.40
2018-11-02T15:14:48.167Z,81.90
2018-11-02T15:17:52.994Z,82.20
2018-11-02T15:20:57.292Z,82.50
2018-11-02T15:24:01.732Z,82.50
2018-11-02T15:27:05.839Z,82.40
2018-11-02T15:30:11.700Z,82.50
2018-11-02T15:33:15.988Z,82.40
2018-11-02T15:36:20.372Z,82.40
2018-11-02T15:39:24.273Z,82.40
2018-11-02T15:42:29.007Z,82.50
2018-11-02T15:45:33.494Z,83.10
2018-11-02T15:48:37.898Z,82.40
2018-11-02T15:51:42.222Z,83.20
2018-11-02T15:54:46.640Z,83.50
2018-11-02T15:57:50.591Z,84.00
2018-11-02T16:00:54.876Z,84.70
2018-11-02T16:03:59.130Z,84.70
2018-11-02T16:07:03.585Z,85.50
2018-11-02T16:10:09.073Z,85.50
2018-11-02T16:13:13.405Z,85.50
2018-11-02T16:16:17.735Z,85.80
2018-11-02T16:19:22.166Z,85.70
2018-11-02T16:22:26.348Z,85.70
2018-11-02T16:25:30.681Z,86.20
2018-11-02T16:28:35.133Z,86.70
2018-11-02T16:31:39.325Z,87.00
2018-11-02T16:34:43.571Z,87.10
2018-11-02T16:37:47.554Z,87.80
2018-11-02T16:40:51.494Z,87.50
2018-11-02T16:43:55.673Z,87.70
2018-11-02T16:46:59.946Z,88.00
2018-11-02T16:50:05.104Z,88.20
2018-11-02T16:53:09.075Z,88.10
2018-11-02T16:56:13.525Z,88.30
2018-11-02T16:59:19.115Z,88.70
2018-11-02T17:02:23.503Z,88.70
2018-11-02T17:05:28.022Z,88.70
2018-11-02T17:08:32.338Z,88.70
2018-11-02T17:11:36.391Z,88.60
2018-11-02T17:14:40.785Z,88.60
2018-11-02T17:17:45.494Z,88.50
2018-11-02T17:20:49.754Z,88.50
2018-11-02T17:23:53.792Z,87.90
2018-11-02T17:26:58.047Z,88.70
2018-11-02T17:30:02.226Z,88.60
2018-11-02T17:33:06.429Z,88.80
2018-11-02T17:36:10.592Z,89.10
2018-11-02T17:39:14.895Z,88.90
2018-11-02T17:42:19.862Z,88.90
2018-11-02T17:45:24.218Z,88.90
2018-11-02T17:48:28.312Z,88.80
2018-11-02T17:51:32.587Z,88.90
2018-11-02T17:54:36.493Z,89.50
2018-11-02T17:57:40.406Z,89.70
2018-11-02T18:00:44.801Z,89.50
2018-11-02T18:03:48.850Z,89.50
2018-11-02T18:06:52.924Z,89.70
2018-11-02T18:09:57.236Z,89.70
2018-11-02T18:13:01.207Z,89.90
2018-11-02T18:16:05.389Z,90.00
2018-11-02T18:19:09.365Z,89.80
2018-11-02T18:22:13.815Z,90.00
2018-11-02T18:25:18.133Z,90.00
2018-11-02T18:28:22.571Z,90.00
2018-11-02T18:31:27.095Z,90.00
2018-11-02T18:34:31.605Z,89.50
2018-11-02T18:37:35.888Z,90.00
2018-11-02T18:40:40.143Z,90.00
2018-11-02T18:43:44.349Z,90.00
2018-11-02T18:46:48.810Z,90.00
2018-11-02T18:49:53.228Z,90.00
2018-11-02T18:52:57.226Z,90.00
2018-11-02T18:56:01.630Z,90.20
2018-11-02T18:59:06.382Z,90.20
2018-11-02T19:02:10.279Z,90.20
2018-11-02T19:05:15.843Z,90.40
2018-11-02T19:08:20.178Z,90.50
2018-11-02T19:11:24.635Z,90.40
2018-11-02T19:14:29.187Z,90.40
2018-11-02T19:17:33.598Z,90.40
2018-11-02T19:20:38.030Z,90.40
2018-11-02T19:23:42.407Z,90.30
2018-11-02T19:26:47.503Z,90.40
2018-11-02T19:29:51.856Z,90.40
2018-11-02T19:32:56.301Z,90.30
2018-11-02T19:36:00.514Z,90.30
2018-11-02T19:39:06.900Z,90.30
2018-11-02T19:42:11.209Z,90.30
2018-11-02T19:45:15.808Z,90.20
2018-11-02T19:48:20.570Z,90.30
2018-11-02T19:51:24.837Z,90.30
2018-11-02T19:54:29.228Z,90.30
2018-11-02T19:57:33.597Z,90.40
2018-11-02T20:00:37.949Z,90.50
2018-11-02T20:03:43.152Z,90.70
2018-11-02T20:06:47.608Z,90.90
2018-11-02T20:09:51.950Z,91.20
2018-11-02T20:12:56.418Z,91.40
2018-11-02T20:16:00.774Z,91.50
2018-11-02T20:19:05.534Z,91.50
2018-11-02T20:22:09.797Z,91.50
2018-11-02T20:25:17.471Z,91.40
2018-11-02T20:28:21.719Z,91.30
2018-11-02T20:31:25.948Z,91.20
2018-11-02T20:34:30.186Z,91.20
2018-11-02T20:37:34.727Z,91.20
2018-11-02T20:40:39.062Z,91.30
2018-11-02T20:43:43.406Z,91.20
2018-11-02T20:46:47.695Z,91.40
2018-11-02T20:49:52.339Z,91.60
2018-11-02T20:52:56.545Z,91.50
2018-11-02T20:56:00.774Z,91.50
2018-11-02T20:59:05.135Z,91.60
2018-11-02T21:02:09.376Z,91.60
2018-11-02T21:05:14.817Z,91.60
2018-11-02T21:08:20.248Z,91.50
2018-11-02T21:11:24.747Z,91.40
2018-11-02T21:14:29.176Z,91.30
2018-11-02T21:17:33.524Z,91.20
2018-11-02T21:20:37.874Z,91.20
2018-11-02T21:23:42.195Z,91.30
2018-11-02T21:26:46.537Z,91.20
2018-11-02T21:29:51.047Z,91.30
2018-11-02T21:32:56.227Z,91.20
2018-11-02T21:36:00.477Z,91.10
2018-11-02T21:39:07.001Z,91.00
2018-11-02T21:42:11.395Z,90.90
2018-11-02T21:45:17.294Z,90.80
2018-11-02T21:48:21.550Z,90.80
2018-11-02T21:51:25.861Z,90.80
2018-11-02T21:54:29.990Z,90.90
2018-11-02T21:57:34.211Z,91.00
2018-11-02T22:00:38.666Z,91.00
2018-11-02T22:03:42.989Z,90.90
2018-11-02T22:06:47.520Z,90.90
2018-11-02T22:09:52.023Z,91.00
2018-11-02T22:12:56.574Z,91.00
2018-11-02T22:16:00.898Z,91.10
2018-11-02T22:19:05.318Z,91.00
2018-11-02T22:22:09.882Z,91.00
2018-11-02T22:25:14.778Z,91.00
2018-11-02T22:28:19.251Z,91.00
2018-11-02T22:31:23.870Z,91.10
2018-11-02T22:34:28.266Z,91.20
2018-11-02T22:37:33.581Z,91.30
2018-11-02T22:40:42.470Z,91.30
2018-11-02T22:43:46.731Z,91.30
2018-11-02T22:46:51.431Z,91.30
2018-11-02T22:49:55.720Z,91.30
2018-11-02T22:53:00.122Z,91.40
2018-11-02T22:56:04.720Z,91.50
2018-11-02T22:59:09.134Z,91.50
2018-11-02T23:02:13.339Z,91.60
2018-11-02T23:05:17.708Z,91.70
2018-11-02T23:08:22.208Z,91.70
2018-11-02T23:11:26.762Z,91.70
2018-11-02T23:14:30.948Z,91.70
2018-11-02T23:17:35.301Z,91.70
2018-11-02T23:20:39.750Z,91.70
2018-11-02T23:23:47.195Z,91.70
2018-11-02T23:26:51.513Z,92.00
2018-11-02T23:30:00.434Z,91.70
2018-11-02T23:33:06.883Z,91.70
2018-11-02T23:36:12.698Z,91.80
2018-11-02T23:39:17.054Z,91.90
2018-11-02T23:42:21.299Z,92.20
2018-11-02T23:45:25.771Z,92.00
2018-11-02T23:48:30.142Z,92.10
2018-11-02T23:51:34.670Z,92.30
2018-11-02T23:54:39.003Z,92.40
2018-11-02T23:57:43.358Z,92.40
